Time;durP1;ratioP1;P1;durP2;ratioP2;P2;SDS_P1;SDS_P2;PMS_P1;PMS_P2;Temp;Humidity;BMP_temperature;BMP_pressure;BME280_temperature;BME280_humidity;BME280_pressure;Samples;Min_cycle;Max_cycle;Signal;HPM_P1;HPM_P2
2023/08/24 00:00:41;;;;;;;;;13.00;11.33;;;;;28.41;55.81;100660.00;4866400;29;44713;-85
2023/08/24 00:06:29;;;;;;;;;13.67;13.33;;;;;28.39;56.35;100661.09;4865023;29;44782;-84
2023/08/24 00:08:54;;;;;;;;;10.00;10.00;;;;;28.32;56.26;100638.72;4866318;29;45184;-84
2023/08/24 00:11:23;;;;;;;;;10.00;10.00;;;;;28.39;56.50;100641.94;4864378;29;44830;-83
2023/08/24 00:13:52;;;;;;;;;12.67;11.67;;;;;28.31;56.02;100642.41;4865729;29;44830;-85
2023/08/24 00:16:19;;;;;;;;;11.67;11.67;;;;;28.25;55.77;100624.53;4863844;29;44846;-84
2023/08/24 00:18:45;;;;;;;;;10.33;9.00;;;;;28.24;55.28;100641.06;4861907;29;45563;-84
2023/08/24 00:21:16;;;;;;;;;8.00;8.00;;;;;28.31;55.49;100643.28;4845846;29;44950;-84
2023/08/24 00:23:44;;;;;;;;;10.67;10.33;;;;;28.22;55.52;100648.44;4848972;29;44828;-86
2023/08/24 00:26:09;;;;;;;;;9.00;9.00;;;;;28.20;55.18;100642.19;4861425;29;44849;-86
2023/08/24 00:28:35;;;;;;;;;10.67;9.67;;;;;28.22;55.40;100653.91;4860962;29;47153;-83
2023/08/24 00:31:01;;;;;;;;;9.67;9.00;;;;;28.21;55.49;100649.44;4860777;29;45031;-82
2023/08/24 00:33:26;;;;;;;;;13.00;10.00;;;;;28.20;55.36;100644.91;4860563;29;44805;-84
2023/08/24 00:35:53;;;;;;;;;7.00;7.00;;;;;28.27;56.12;100649.03;4847244;29;44934;-83
2023/08/24 00:38:18;;;;;;;;;10.33;7.33;;;;;28.16;55.64;100655.19;4847059;29;46761;-84
2023/08/24 00:41:34;;;;;;;;;11.00;11.00;;;;;28.26;56.67;100653.66;4846510;29;44734;-85
2023/08/24 00:44:00;;;;;;;;;13.00;13.00;;;;;28.11;57.57;100643.63;4846093;29;45370;-84
2023/08/24 00:46:27;;;;;;;;;12.00;12.00;;;;;28.10;57.69;100650.97;4863244;29;44806;-84
2023/08/24 00:48:56;;;;;;;;;13.67;12.67;;;;;28.09;57.48;100651.03;4863230;29;45496;-84
2023/08/24 00:51:23;;;;;;;;;11.33;11.33;;;;;28.00;58.07;100647.03;4847548;29;45093;-85
2023/08/24 00:53:49;;;;;;;;;14.00;13.00;;;;;27.99;58.12;100641.66;4865486;29;44887;-86
2023/08/24 00:56:15;;;;;;;;;12.33;11.00;;;;;27.96;58.23;100642.72;4866197;29;44918;-83
2023/08/24 00:58:41;;;;;;;;;14.33;13.33;;;;;27.93;58.71;100642.88;4848607;29;46932;-85
2023/08/24 01:01:07;;;;;;;;;13.33;12.00;;;;;27.87;59.15;100637.78;4864148;29;44785;-85
2023/08/24 01:03:32;;;;;;;;;13.67;12.33;;;;;27.71;59.89;100626.84;4863729;29;44837;-84
2023/08/24 01:05:58;;;;;;;;;12.33;11.33;;;;;27.71;59.97;100644.16;4864922;29;44692;-85
2023/08/24 01:08:24;;;;;;;;;12.00;12.00;;;;;27.70;60.08;100642.38;4864735;29;45579;-85
2023/08/24 01:11:35;;;;;;;;;11.67;10.00;;;;;27.71;60.55;100640.53;4849184;29;44753;-86
2023/08/24 01:14:17;;;;;;;;;9.33;9.00;;;;;27.55;60.84;100637.81;4776701;29;44896;-84
2023/08/24 01:16:46;;;;;;;;;14.00;12.00;;;;;27.54;60.86;100646.97;4778560;29;44877;-82
2023/08/24 01:19:27;;;;;;;;;14.00;12.67;;;;;27.49;61.76;100641.81;4763443;29;46821;-85
2023/08/24 01:21:55;;;;;;;;;11.67;11.00;;;;;27.42;61.13;100637.66;4777809;29;44787;-83
2023/08/24 01:24:34;;;;;;;;;14.67;13.67;;;;;27.42;60.95;100636.78;4792713;29;44726;-84
2023/08/24 01:27:01;;;;;;;;;13.00;12.00;;;;;27.32;61.09;100630.97;4778551;29;45305;-82
2023/08/24 01:29:27;;;;;;;;;12.00;10.33;;;;;27.33;61.47;100627.28;4792572;29;45619;-86
2023/08/24 01:31:53;;;;;;;;;9.00;9.00;;;;;27.31;61.47;100623.75;4791933;29;44892;-84
2023/08/24 01:34:18;;;;;;;;;9.00;9.00;;;;;27.30;61.64;100617.38;4793320;29;44839;-83
2023/08/24 01:36:45;;;;;;;;;13.00;10.33;;;;;27.31;61.41;100627.34;4793504;29;44824;-85
2023/08/24 01:39:24;;;;;;;;;9.33;9.33;;;;;27.31;61.61;100619.16;4778197;29;47473;-83
2023/08/24 01:41:53;;;;;;;;;12.33;12.00;;;;;27.28;62.00;100619.31;4794291;29;44781;-85
2023/08/24 01:44:21;;;;;;;;;11.67;10.33;;;;;27.22;62.05;100606.00;4792999;29;44866;-83
2023/08/24 01:46:49;;;;;;;;;11.00;9.00;;;;;27.18;62.10;100612.59;4792578;29;44945;-85
2023/08/24 01:49:18;;;;;;;;;10.67;10.33;;;;;27.12;62.38;100604.75;4792821;29;45539;-84
2023/08/24 01:51:45;;;;;;;;;12.00;12.00;;;;;27.11;62.96;100611.22;4848259;29;44865;-85
2023/08/24 01:54:13;;;;;;;;;12.67;10.00;;;;;27.11;63.00;100606.63;4868455;29;44844;-84
2023/08/24 01:56:39;;;;;;;;;9.00;8.67;;;;;27.00;63.01;100594.56;4850988;29;44817;-82
2023/08/24 01:59:04;;;;;;;;;11.00;11.00;;;;;26.99;62.93;100606.44;4851929;29;46974;-83
2023/08/24 02:01:30;;;;;;;;;13.00;11.00;;;;;26.98;62.81;100596.50;4868070;29;45230;-85
2023/08/24 02:03:55;;;;;;;;;9.67;8.67;;;;;26.98;62.78;100596.50;4867662;29;45116;-86
2023/08/24 02:06:26;;;;;;;;;11.00;11.00;;;;;27.02;62.65;100596.22;4850592;29;44882;-85
2023/08/24 02:08:51;;;;;;;;;9.00;9.00;;;;;26.97;62.55;100594.75;4866521;29;45192;-84
2023/08/24 02:11:16;;;;;;;;;12.00;11.33;;;;;26.92;62.36;100584.97;4866647;29;44805;-85
2023/08/24 02:13:43;;;;;;;;;10.00;10.00;;;;;27.01;62.63;100594.47;4833358;29;44771;-85
2023/08/24 02:16:09;;;;;;;;;11.67;11.67;;;;;26.94;63.08;100595.78;4850095;29;45185;-85
2023/08/24 02:18:34;;;;;;;;;12.67;11.33;;;;;26.92;63.25;100595.88;4866625;29;44969;-85
2023/08/24 02:21:00;;;;;;;;;11.33;10.00;;;;;26.86;63.02;100581.69;4850688;29;44828;-85
2023/08/24 02:23:25;;;;;;;;;10.33;10.33;;;;;26.83;63.76;100582.75;4849976;29;44807;-85
2023/08/24 02:25:51;;;;;;;;;12.67;11.67;;;;;26.77;63.86;100574.03;4851643;29;44923;-86
2023/08/24 02:28:16;;;;;;;;;10.33;10.33;;;;;26.77;63.91;100576.75;4850424;29;47295;-86
2023/08/24 02:30:41;;;;;;;;;10.75;10.75;;;;;26.74;63.84;100575.06;4851040;29;44857;-85
2023/08/24 02:33:07;;;;;;;;;10.00;9.00;;;;;26.71;63.89;100567.06;4866729;29;44845;-84
2023/08/24 02:35:33;;;;;;;;;13.67;11.33;;;;;26.67;64.28;100566.34;4834593;29;44976;-84
2023/08/24 02:37:58;;;;;;;;;10.67;10.67;;;;;26.62;64.34;100562.09;4848906;29;47008;-86
2023/08/24 02:40:27;;;;;;;;;9.67;9.67;;;;;26.66;64.57;100560.97;4849279;29;45290;-84
2023/08/24 02:42:52;;;;;;;;;12.67;10.33;;;;;26.58;64.53;100561.38;4865621;29;44931;-85
2023/08/24 02:45:18;;;;;;;;;12.33;12.33;;;;;26.53;64.52;100552.56;4865486;29;44776;-84
2023/08/24 02:47:43;;;;;;;;;9.75;9.75;;;;;26.49;65.45;100554.56;4864867;29;45025;-85
2023/08/24 02:50:09;;;;;;;;;9.33;9.33;;;;;26.51;65.08;100546.31;4865543;29;45074;-85
2023/08/24 02:52:34;;;;;;;;;11.00;10.00;;;;;26.45;65.75;100536.63;4864499;29;44842;-83
2023/08/24 02:55:34;;;;;;;;;10.67;10.67;;;;;26.54;65.73;100541.59;4862909;29;45003;-86
2023/08/24 02:57:59;;;;;;;;;11.75;10.75;;;;;26.38;66.17;100529.78;4864455;29;45420;-84
2023/08/24 03:00:24;;;;;;;;;11.00;11.00;;;;;26.39;65.99;100531.50;4847896;29;44961;-85
2023/08/24 03:02:50;;;;;;;;;11.33;11.33;;;;;26.35;66.53;100529.91;4865023;29;45474;-82
2023/08/24 03:05:15;;;;;;;;;11.67;11.67;;;;;26.35;65.99;100530.78;4847919;29;45427;-83
2023/08/24 03:07:41;;;;;;;;;13.33;11.00;;;;;26.34;66.75;100520.88;4848904;29;47163;-85
2023/08/24 03:10:07;;;;;;;;;13.33;13.00;;;;;26.39;66.95;100527.91;4848255;29;44830;-85
2023/08/24 03:28:11;;;;;;;;;12.00;11.00;;;;;26.22;68.24;100498.84;4991413;23;9025179;-84
2023/08/24 03:30:38;;;;;;;;;14.33;11.33;;;;;26.19;67.11;100501.75;4900216;29;44790;-84
2023/08/24 03:33:05;;;;;;;;;13.67;11.67;;;;;26.18;67.78;100505.41;4899353;28;44765;-85
2023/08/24 03:35:37;;;;;;;;;11.00;11.00;;;;;26.18;67.35;100502.69;4883711;29;44813;-84
2023/08/24 03:38:03;;;;;;;;;10.33;10.33;;;;;26.14;68.19;100497.44;4900464;29;45462;-85
2023/08/24 03:40:30;;;;;;;;;11.33;11.33;;;;;26.12;68.77;100493.03;4902514;29;45179;-84
2023/08/24 03:42:55;;;;;;;;;13.00;11.67;;;;;26.11;67.77;100489.41;4901573;29;44852;-85
2023/08/24 03:45:22;;;;;;;;;11.67;11.67;;;;;26.17;67.74;100492.78;4886584;29;44882;-85
2023/08/24 03:47:48;;;;;;;;;11.67;11.67;;;;;26.11;67.71;100494.84;4886356;29;47273;-86
2023/08/24 03:50:14;;;;;;;;;12.67;11.00;;;;;26.12;67.70;100488.44;4884949;29;45036;-86
2023/08/24 03:52:39;;;;;;;;;14.00;11.33;;;;;26.08;68.16;100484.13;4900233;29;44847;-84
2023/08/24 03:55:06;;;;;;;;;12.33;12.33;;;;;26.14;67.84;100491.09;4901061;29;44781;-85
2023/08/24 03:57:32;;;;;;;;;13.33;12.33;;;;;26.09;67.94;100485.88;4884542;29;47366;-84
2023/08/24 03:59:57;;;;;;;;;11.33;11.33;;;;;26.10;67.73;100482.22;4903921;29;44760;-85
2023/08/24 04:05:44;;;;;;;;;11.67;10.67;;;;;26.09;68.00;100479.56;4900775;29;44695;-86
2023/08/24 04:08:10;;;;;;;;;13.00;12.67;;;;;26.08;68.18;100489.59;4882879;29;46892;-84
2023/08/24 04:10:35;;;;;;;;;12.00;12.00;;;;;26.06;68.51;100486.06;4899416;29;44739;-86
2023/08/24 04:13:01;;;;;;;;;7.67;7.67;;;;;26.04;68.15;100477.09;4899905;29;45108;-84
2023/08/24 04:15:27;;;;;;;;;11.00;11.00;;;;;26.04;68.38;100473.50;4883463;29;44857;-86
2023/08/24 04:17:52;;;;;;;;;12.67;11.00;;;;;26.01;68.26;100476.38;4898756;28;47442;-84
2023/08/24 04:20:18;;;;;;;;;12.33;10.33;;;;;26.03;68.15;100475.31;4882755;29;44954;-85
2023/08/24 04:22:43;;;;;;;;;12.00;11.33;;;;;26.01;67.49;100474.53;4882637;29;44762;-86
2023/08/24 04:25:09;;;;;;;;;13.00;12.00;;;;;25.99;67.49;100473.72;4900566;29;45183;-86
2023/08/24 04:27:43;;;;;;;;;11.00;10.67;;;;;26.00;67.13;100464.59;4882408;29;47006;-85
2023/08/24 04:30:11;;;;;;;;;11.33;10.33;;;;;25.98;66.78;100471.97;4897630;28;44951;-84
2023/08/24 04:32:37;;;;;;;;;11.00;11.00;;;;;25.98;66.51;100463.81;4884629;29;44745;-85
2023/08/24 04:35:03;;;;;;;;;10.00;10.00;;;;;25.97;66.50;100459.31;4899595;29;44765;-85
2023/08/24 04:37:28;;;;;;;;;12.00;11.00;;;;;25.97;66.38;100448.41;4882428;29;47003;-85
2023/08/24 04:39:54;;;;;;;;;12.00;11.00;;;;;25.96;66.46;100452.09;4882316;29;44761;-85
2023/08/24 04:42:22;;;;;;;;;14.33;11.33;;;;;26.00;66.65;100441.94;4881108;29;44816;-84
2023/08/24 04:44:48;;;;;;;;;12.00;12.00;;;;;25.92;66.47;100439.63;4898174;29;45038;-84
2023/08/24 04:47:13;;;;;;;;;10.00;9.33;;;;;25.92;66.27;100445.06;4897012;29;45079;-85
2023/08/24 04:49:39;;;;;;;;;10.00;10.00;;;;;25.91;66.19;100443.28;4897984;29;45085;-85
2023/08/24 04:52:04;;;;;;;;;14.33;14.33;;;;;25.88;66.15;100438.00;4879863;29;45074;-84
2023/08/24 04:54:30;;;;;;;;;13.00;12.00;;;;;25.83;66.48;100443.66;4896335;29;44889;-86
2023/08/24 04:56:56;;;;;;;;;10.67;10.67;;;;;25.83;66.54;100421.88;4880569;29;46358;-86
2023/08/24 04:59:21;;;;;;;;;11.33;10.67;;;;;25.82;66.66;100431.03;4897028;29;44776;-86
2023/08/24 05:01:47;;;;;;;;;10.33;10.33;;;;;25.78;66.67;100425.84;4880562;29;45162;-85
2023/08/24 05:04:12;;;;;;;;;12.33;12.33;;;;;25.79;67.05;100433.03;4880644;29;44948;-83
2023/08/24 05:06:38;;;;;;;;;10.33;10.33;;;;;25.79;67.22;100439.34;4879567;29;46901;-86
2023/08/24 05:09:03;;;;;;;;;12.00;12.00;;;;;25.79;67.01;100433.03;4894974;29;44817;-86
2023/08/24 05:11:32;;;;;;;;;10.33;10.00;;;;;25.80;66.76;100442.97;4897333;29;44782;-86
2023/08/24 05:14:00;;;;;;;;;10.33;9.33;;;;;25.77;67.06;100440.41;4898054;29;44805;-86
2023/08/24 05:16:27;;;;;;;;;11.33;11.00;;;;;25.71;66.93;100437.06;4896869;29;45156;-85
2023/08/24 05:18:53;;;;;;;;;11.33;11.33;;;;;25.81;66.80;100452.91;4881267;29;44971;-86
2023/08/24 05:21:18;;;;;;;;;13.00;11.67;;;;;25.83;66.94;100456.41;4899266;29;45281;-84
2023/08/24 05:23:43;;;;;;;;;12.67;11.67;;;;;25.85;66.86;100444.47;4883834;29;44804;-83
2023/08/24 05:26:09;;;;;;;;;12.00;12.00;;;;;25.87;66.56;100450.72;4898732;28;47320;-84
2023/08/24 05:28:34;;;;;;;;;12.33;12.33;;;;;25.89;66.83;100434.28;4899333;29;44939;-84
2023/08/24 05:31:00;;;;;;;;;6.33;6.33;;;;;26.01;66.03;100454.56;4900840;29;44814;-86
2023/08/24 05:33:26;;;;;;;;;10.00;10.00;;;;;26.04;66.24;100438.06;4900521;29;45412;-83
2023/08/24 05:35:54;;;;;;;;;13.33;12.33;;;;;26.18;65.74;100446.34;4898802;29;45325;-86
2023/08/24 05:38:20;;;;;;;;;14.33;14.00;;;;;26.23;65.63;100444.22;4883601;29;44882;-86
2023/08/24 05:40:49;;;;;;;;;16.00;13.33;;;;;26.40;65.28;100440.56;4897134;29;45179;-85
2023/08/24 05:43:15;;;;;;;;;14.00;13.00;;;;;26.43;64.75;100439.50;4868913;29;44814;-86
2023/08/24 05:45:43;;;;;;;;;11.67;11.33;;;;;26.47;64.35;100431.06;4899765;29;45167;-86
2023/08/24 05:48:09;;;;;;;;;13.00;13.00;;;;;26.53;63.83;100419.81;4897195;29;45536;-86
2023/08/24 05:50:44;;;;;;;;;12.33;11.33;;;;;26.69;63.09;100413.50;4899155;29;44888;-86
2023/08/24 05:53:10;;;;;;;;;12.00;12.00;;;;;26.67;62.96;100405.41;4901598;29;44808;-89
2023/08/24 05:58:13;;;;;;;;;11.00;11.00;;;;;26.66;62.16;100402.75;5125589;23;46999;-85
2023/08/24 06:00:38;;;;;;;;;12.67;12.67;;;;;26.73;62.32;100410.50;4912125;28;44875;-85
2023/08/24 06:03:04;;;;;;;;;11.00;10.67;;;;;26.75;61.64;100413.16;4912513;28;44883;-86
2023/08/24 06:05:31;;;;;;;;;11.33;11.33;;;;;26.79;61.07;100424.75;4911162;29;45278;-84
2023/08/24 06:08:02;;;;;;;;;8.67;8.67;;;;;26.91;60.69;100424.91;4894552;29;45045;-85
2023/08/24 06:10:30;;;;;;;;;10.67;10.67;;;;;26.84;61.16;100426.22;4895260;29;45263;-86
2023/08/24 06:13:01;;;;;;;;;11.67;11.67;;;;;26.92;60.62;100433.97;4895909;28;44929;-86
2023/08/24 06:15:28;;;;;;;;;11.67;11.67;;;;;26.84;60.50;100437.13;4894018;29;47364;-88
2023/08/24 06:17:53;;;;;;;;;13.67;13.33;;;;;26.80;61.27;100438.28;4910524;28;45335;-87
2023/08/24 06:20:20;;;;;;;;;13.33;12.00;;;;;26.77;61.39;100424.84;4910179;29;44805;-85
2023/08/24 06:22:55;;;;;;;;;15.67;13.00;;;;;26.90;61.21;100444.97;4909353;29;45438;-86
2023/08/24 06:25:23;;;;;;;;;11.00;11.00;;;;;26.66;61.44;100432.75;4894398;29;47094;-87
2023/08/24 06:27:48;;;;;;;;;13.00;11.33;;;;;26.85;61.38;100460.75;4894594;29;45200;-87
2023/08/24 06:30:17;;;;;;;;;12.67;12.67;;;;;26.72;61.01;100418.75;4896048;29;45270;-87
2023/08/24 06:32:43;;;;;;;;;13.33;12.67;;;;;26.89;60.54;100448.69;4895893;29;44841;-86
2023/08/24 06:35:27;;;;;;;;;14.33;13.00;;;;;26.71;60.43;100398.78;4910594;29;47175;-86
2023/08/24 06:37:53;;;;;;;;;13.33;13.33;;;;;26.91;60.13;100441.28;4894539;29;44763;-87
2023/08/24 06:40:22;;;;;;;;;13.67;11.67;;;;;26.92;59.90;100421.22;4910247;28;45221;-86
2023/08/24 06:42:51;;;;;;;;;14.33;14.33;;;;;26.91;60.22;100413.13;4908261;29;45405;-86
2023/08/24 06:45:18;;;;;;;;;13.00;13.00;;;;;26.89;60.02;100407.75;4892459;29;48098;-85
2023/08/24 06:48:06;;;;;;;;;11.00;11.00;;;;;27.19;60.01;100439.66;4910430;29;44872;-86
2023/08/24 06:50:41;;;;;;;;;13.00;12.00;;;;;27.23;59.63;100435.78;4914164;29;44785;-83
2023/08/24 06:53:09;;;;;;;;;17.67;16.67;;;;;27.24;59.80;100425.75;4893515;29;45440;-83
2023/08/24 06:55:43;;;;;;;;;15.00;13.33;;;;;27.42;59.39;100434.66;4908899;29;45591;-86
2023/08/24 06:58:16;;;;;;;;;11.33;11.00;;;;;27.45;59.48;100418.97;4909926;28;44839;-86
2023/08/24 07:00:41;;;;;;;;;12.67;12.67;;;;;27.50;59.61;100432.34;4910981;29;45475;-85
2023/08/24 07:03:16;;;;;;;;;14.33;12.67;;;;;27.54;59.09;100429.31;4897496;29;44884;-86
2023/08/24 07:05:42;;;;;;;;;11.67;11.33;;;;;27.45;59.13;100407.16;4914550;28;45580;-84
2023/08/24 07:08:25;;;;;;;;;13.00;13.00;;;;;27.37;59.05;100395.81;4913166;29;44804;-85
2023/08/24 07:11:02;;;;;;;;;13.33;12.33;;;;;27.62;58.69;100437.03;4915859;28;45440;-85
2023/08/24 07:13:34;;;;;;;;;12.33;12.33;;;;;27.44;58.66;100378.09;4914278;29;45470;-87
2023/08/24 07:16:02;;;;;;;;;9.67;9.67;;;;;27.68;58.34;100422.13;4916601;28;45276;-87
2023/08/24 07:18:31;;;;;;;;;15.00;14.33;;;;;27.71;58.14;100408.25;4915191;29;45445;-86
2023/08/24 07:21:14;;;;;;;;;12.33;12.33;;;;;27.94;57.68;100439.66;4911144;29;45410;-86
2023/08/24 07:24:09;;;;;;;;;;;;;;;;;;;;;
2023/08/24 07:26:42;;;;;;;;;14.00;14.00;;;;;27.82;57.83;100418.53;4911333;29;75147;-84
2023/08/24 07:32:32;;;;;;;;;11.67;11.67;;;;;28.23;56.69;100423.22;4910805;29;45144;-87
2023/08/24 07:35:14;;;;;;;;;12.33;12.33;;;;;28.18;56.94;100415.34;4909383;29;44892;-81
2023/08/24 07:37:49;;;;;;;;;13.67;12.67;;;;;28.15;56.84;100385.44;4906030;29;46096;-81
2023/08/24 07:40:28;;;;;;;;;14.00;14.00;;;;;28.09;56.60;100389.44;4907776;29;44744;-83
2023/08/24 07:43:17;;;;;;;;;11.67;11.67;;;;;28.55;56.18;100420.28;4912536;29;44798;-82
2023/08/24 07:45:43;;;;;;;;;12.33;11.33;;;;;28.30;55.32;100384.47;4893078;28;44978;-81
2023/08/24 07:48:11;;;;;;;;;12.00;12.00;;;;;28.41;55.66;100386.47;4897084;29;47341;-81
2023/08/24 07:50:47;;;;;;;;;14.33;11.67;;;;;28.31;55.46;100361.59;4898039;29;44835;-83
2023/08/24 07:53:28;;;;;;;;;13.00;13.00;;;;;28.33;55.75;100392.44;4915161;29;45357;-83
2023/08/24 07:59:22;;;;;;;;;14.00;12.33;;;;;28.39;56.00;100388.44;4911421;29;45826;-83
2023/08/24 08:01:54;;;;;;;;;12.67;12.67;;;;;28.73;56.35;100408.13;4910597;29;44959;-82
2023/08/24 08:04:20;;;;;;;;;11.00;11.00;;;;;28.82;55.09;100429.38;4910774;29;45414;-83
2023/08/24 08:06:53;;;;;;;;;13.00;13.00;;;;;28.88;54.24;100412.56;4904542;29;45428;-81
2023/08/24 08:13:01;;;;;;;;;12.00;12.00;;;;;29.05;53.86;100425.09;4893984;29;44880;-83
2023/08/24 08:15:33;;;;;;;;;12.33;12.33;;;;;28.98;53.85;100395.50;4891909;29;44928;-82
2023/08/24 08:17:58;;;;;;;;;10.00;10.00;;;;;29.19;53.40;100429.66;4890343;29;44745;-81
2023/08/24 08:20:26;;;;;;;;;11.33;10.33;;;;;29.37;53.22;100427.50;4887498;29;47005;-82
2023/08/24 08:22:53;;;;;;;;;17.00;15.00;;;;;29.37;52.95;100397.38;4888630;29;45431;-81
2023/08/24 08:25:21;;;;;;;;;14.67;14.67;;;;;29.50;53.61;100387.28;4892495;29;44764;-81
2023/08/24 08:27:51;;;;;;;;;14.00;14.00;;;;;29.67;53.31;100382.47;4907793;29;44866;-81
2023/08/24 08:30:17;;;;;;;;;13.67;13.67;;;;;29.60;53.85;100392.13;4907466;29;46942;-81
2023/08/24 08:32:52;;;;;;;;;15.33;13.00;;;;;29.27;53.88;100372.47;4890644;29;44829;-81
2023/08/24 08:38:39;;;;;;;;;13.33;12.33;;;;;29.05;55.52;100447.00;4905564;29;45509;-80
2023/08/24 08:41:05;;;;;;;;;16.00;15.33;;;;;28.82;55.92;100443.06;4870350;29;47351;-81
2023/08/24 08:43:30;;;;;;;;;14.67;13.00;;;;;28.62;56.19;100427.09;4888861;29;44835;-82
2023/08/24 08:45:57;;;;;;;;;14.33;14.00;;;;;28.65;56.66;100452.41;4873676;29;44945;-82
2023/08/24 08:52:16;;;;;;;;;18.33;17.33;;;;;28.61;56.29;100458.19;4892633;29;44876;-82
2023/08/24 08:54:45;;;;;;;;;12.33;12.33;;;;;28.51;56.56;100453.31;4877434;29;44806;-80
2023/08/24 08:57:19;;;;;;;;;13.33;11.00;;;;;28.48;56.20;100438.91;4894678;29;45452;-82
2023/08/24 08:59:52;;;;;;;;;14.67;14.67;;;;;28.76;56.43;100459.03;4910831;29;44766;-82
2023/08/24 09:02:23;;;;;;;;;13.33;13.33;;;;;28.97;55.85;100463.06;4912021;29;45295;-83
2023/08/24 09:04:55;;;;;;;;;16.33;15.67;;;;;29.02;55.79;100435.38;4894001;29;44985;-82
2023/08/24 09:07:38;;;;;;;;;13.00;13.00;;;;;29.04;55.19;100395.06;4909032;29;44848;-86
2023/08/24 09:10:06;;;;;;;;;18.33;14.33;;;;;29.19;54.25;100374.88;4892833;29;45013;-83
2023/08/24 09:12:50;;;;;;;;;14.33;12.33;;;;;29.60;53.73;100409.44;4907334;29;45418;-82
2023/08/24 09:15:28;;;;;;;;;12.33;12.33;;;;;29.58;54.16;100378.53;4889204;29;44804;-81
2023/08/24 09:18:00;;;;;;;;;15.00;15.00;;;;;29.65;53.57;100371.63;4903574;29;44837;-83
2023/08/24 09:20:29;;;;;;;;;13.33;10.67;;;;;29.46;53.71;100352.00;4896216;29;44881;-83
2023/08/24 09:23:01;;;;;;;;;14.00;12.67;;;;;29.56;53.44;100402.41;4896216;29;46702;-84
2023/08/24 09:36:08;;;;;;;;;13.00;12.00;;;;;29.19;53.71;100415.97;4919052;28;44858;-82
2023/08/24 09:38:45;;;;;;;;;11.33;11.33;;;;;29.22;53.98;100417.59;4904691;29;44740;-84
2023/08/24 09:41:11;;;;;;;;;14.00;14.00;;;;;29.29;53.65;100439.00;4903162;29;45793;-84
2023/08/24 09:43:39;;;;;;;;;14.00;14.00;;;;;29.55;53.65;100460.97;4904890;29;44837;-82
2023/08/24 09:46:15;;;;;;;;;12.33;12.33;;;;;29.47;52.77;100453.28;4919340;29;45236;-81
2023/08/24 09:49:33;;;;;;;;;13.33;13.33;;;;;29.78;52.43;100488.66;4921287;29;45476;-81
2023/08/24 09:52:23;;;;;;;;;12.33;12.33;;;;;29.55;52.64;100471.94;4918339;29;44741;-82
2023/08/24 09:54:53;;;;;;;;;14.00;14.00;;;;;29.52;52.74;100496.78;4917855;29;45506;-82
2023/08/24 09:57:42;;;;;;;;;13.33;12.00;;;;;29.51;52.93;100508.72;4888877;29;47252;-81
2023/08/24 10:00:46;;;;;;;;;14.33;13.67;;;;;29.38;52.93;100513.31;4921097;28;44772;-80
2023/08/24 10:03:32;;;;;;;;;12.00;12.00;;;;;29.11;53.38;100479.47;4908896;28;44842;-83
2023/08/24 10:11:14;;;;;;;;;12.67;12.00;;;;;29.18;52.96;100495.47;1892951;23;46218;-81
2023/08/24 10:14:17;;;;;;;;;13.67;13.67;;;;;29.29;52.95;100477.34;4886588;29;44901;-82
2023/08/24 10:34:59;;;;;;;;;15.33;14.33;;;;;29.92;51.98;100485.81;4212945;23;45533;-83
2023/08/24 10:37:35;;;;;;;;;14.67;13.00;;;;;29.91;52.07;100495.00;4905517;29;44844;-82
2023/08/24 10:40:03;;;;;;;;;10.67;10.67;;;;;29.85;51.15;100487.22;4904756;28;47713;-82
2023/08/24 10:42:43;;;;;;;;;12.00;12.00;;;;;29.89;51.32;100499.72;4887775;29;45364;-82
2023/08/24 11:22:30;;;;;;;;;43.33;35.67;;;;;29.08;54.11;100519.84;5307369;23;46666;-79
2023/08/24 11:24:56;;;;;;;;;10.00;10.00;;;;;29.03;55.90;100606.91;4889249;29;45443;-74
2023/08/24 11:27:22;;;;;;;;;11.67;11.67;;;;;28.76;56.53;100637.78;4886205;29;45681;-75
2023/08/24 11:30:05;;;;;;;;;9.75;9.75;;;;;28.55;58.24;100614.53;4899092;29;44889;-77
2023/08/24 11:35:53;;;;;;;;;10.33;9.33;;;;;28.07;59.76;100601.91;4917876;29;44714;-78
2023/08/24 11:38:23;;;;;;;;;10.00;8.00;;;;;28.06;60.81;100612.97;4919791;29;44750;-78
2023/08/24 11:40:52;;;;;;;;;8.67;7.00;;;;;28.09;61.74;100626.44;4917708;29;44738;-80
2023/08/24 11:43:26;;;;;;;;;10.00;10.00;;;;;28.05;61.27;100669.47;4915442;29;45488;-78
2023/08/24 11:46:36;;;;;;;;;7.00;7.00;;;;;28.09;61.89;100682.00;4918320;29;44856;-80
2023/08/24 11:54:28;;;;;;;;;9.50;8.50;;;;;28.24;60.75;100676.59;4919770;28;45230;-79
2023/08/24 11:56:56;;;;;;;;;11.00;9.00;;;;;28.27;61.22;100657.25;4920435;29;44935;-80
2023/08/24 11:59:25;;;;;;;;;9.33;7.67;;;;;28.25;61.99;100651.00;4923112;28;44793;-80
2023/08/24 12:01:55;;;;;;;;;12.67;10.00;;;;;28.33;61.83;100652.28;4901715;29;44814;-79
2023/08/24 12:07:45;;;;;;;;;7.67;6.00;;;;;28.24;62.17;100619.16;4921574;29;44947;-79
2023/08/24 12:10:15;;;;;;;;;10.33;9.33;;;;;28.23;63.57;100622.88;4920886;28;44919;-81
2023/08/24 12:17:54;;;;;;;;;12.00;10.00;;;;;28.28;64.42;100582.44;5593679;23;46533;-81
2023/08/24 12:20:26;;;;;;;;;10.67;9.67;;;;;28.32;63.81;100584.00;4906597;29;44938;-80
2023/08/24 12:30:51;;;;;;;;;11.00;11.00;;;;;28.05;63.57;100531.91;5173925;23;45828;-82
2023/08/24 12:33:26;;;;;;;;;11.33;11.33;;;;;28.17;63.53;100549.41;4902750;28;44971;-79
2023/08/24 12:35:53;;;;;;;;;10.33;9.33;;;;;27.82;63.90;100500.53;4898536;29;46923;-80
2023/08/24 12:38:21;;;;;;;;;9.33;7.67;;;;;27.93;63.59;100525.34;5013655;23;46585;-78
2023/08/24 12:40:46;;;;;;;;;8.67;7.33;;;;;27.91;63.85;100527.31;4898791;29;44883;-79
2023/08/24 12:43:12;;;;;;;;;8.00;4.67;;;;;27.87;64.22;100533.94;4906285;28;45146;-81
2023/08/24 12:55:58;;;;;;;;;10.67;10.67;;;;;27.24;64.41;100388.38;4784360;26;45280;-81
2023/08/24 12:58:27;;;;;;;;;10.67;10.33;;;;;27.16;65.28;100325.16;4922801;28;45327;-81
2023/08/24 13:00:52;;;;;;;;;10.00;10.00;;;;;27.03;65.79;100314.13;4903557;28;44743;-80
2023/08/24 13:03:18;;;;;;;;;11.67;11.67;;;;;27.05;65.45;100335.88;4922305;28;44756;-81
2023/08/24 13:05:53;;;;;;;;;10.33;10.33;;;;;27.01;66.26;100316.06;4921703;28;45259;-80
2023/08/24 13:08:25;;;;;;;;;10.00;9.33;;;;;27.08;65.67;100300.19;4909344;29;45034;-79
2023/08/24 13:10:51;;;;;;;;;11.33;11.33;;;;;26.93;66.11;100308.34;4926190;28;44856;-79
2023/08/24 13:13:20;;;;;;;;;8.33;8.33;;;;;26.80;66.18;100298.28;4910142;28;44901;-81
2023/08/24 13:41:39;;;;;;;;;11.33;11.33;;;;;27.34;67.64;100324.03;5262734;23;46080;-81
2023/08/24 13:46:39;;;;;;;;;10.33;10.33;;;;;27.58;66.86;100326.22;4572105;23;45285;-81
2023/08/24 13:51:50;;;;;;;;;11.33;11.33;;;;;27.98;65.42;100301.81;4703897;23;44902;-80
2023/08/24 13:54:48;;;;;;;;;14.00;14.00;;;;;28.33;64.23;100301.31;4906662;29;44771;-81
2023/08/24 14:10:13;;;;;;;;;15.00;14.67;;;;;29.01;60.25;100188.09;5457931;23;45645;-82
2023/08/24 14:34:45;;;;;;;;;16.50;16.50;;;;;30.76;56.12;100198.75;5943345;23;46056;31
2023/08/24 14:37:17;;;;;;;;;13.67;13.33;;;;;30.64;55.25;100164.06;4880652;29;44772;-79
2023/08/24 14:39:42;;;;;;;;;13.33;13.33;;;;;30.52;55.45;100152.16;4877495;29;44864;-80
2023/08/24 14:42:08;;;;;;;;;19.67;16.33;;;;;31.05;55.99;100176.38;4881387;29;45210;-79
2023/08/24 14:44:35;;;;;;;;;18.00;18.00;;;;;31.20;54.40;100172.38;4884162;29;44722;-81
2023/08/24 14:47:00;;;;;;;;;13.67;13.67;;;;;31.58;53.92;100193.13;4884616;29;45326;-79
2023/08/24 14:49:26;;;;;;;;;10.33;10.33;;;;;31.35;53.66;100172.13;5233739;23;46975;-81
2023/08/24 14:52:01;;;;;;;;;10.33;10.33;;;;;30.78;54.78;100138.25;5676538;23;46987;-80
2023/08/24 14:54:29;;;;;;;;;15.33;15.33;;;;;30.67;55.20;100174.81;4926422;28;45195;-81
2023/08/24 15:04:46;;;;;;;;;11.67;11.67;;;;;32.15;54.12;100136.09;4937037;23;45053;-83
2023/08/24 15:07:12;;;;;;;;;14.00;14.00;;;;;32.67;51.73;100142.59;4924231;29;44771;-78